createdAt,value
2022-10-01T00:00:19.110Z,1.33
2022-10-01T00:02:49.670Z,1.60
2022-10-01T00:05:20.000Z,1.60
2022-10-01T00:10:19.314Z,1.50
2022-10-01T00:12:50.690Z,1.40
2022-10-01T00:15:22.083Z,2.40
2022-10-01T00:17:52.267Z,1.95
2022-10-01T00:20:21.989Z,2.80
2022-10-01T00:25:21.320Z,2.38
2022-10-01T00:27:51.095Z,2.42
2022-10-01T00:30:20.981Z,2.50
2022-10-01T00:32:51.187Z,1.85
2022-10-01T00:35:21.056Z,1.77
2022-10-01T00:37:54.894Z,1.70
2022-10-01T00:40:25.154Z,1.70
2022-10-01T00:42:54.869Z,1.40
2022-10-01T00:45:24.793Z,1.63
2022-10-01T00:48:00.444Z,1.63
2022-10-01T00:50:36.014Z,1.60
2022-10-01T00:53:13.023Z,1.60
2022-10-01T00:55:48.929Z,1.63
2022-10-01T00:58:21.532Z,1.63
2022-10-01T01:00:52.868Z,1.80
2022-10-01T01:03:23.150Z,1.50
2022-10-01T01:05:52.936Z,1.58
2022-10-01T01:08:23.109Z,1.55
2022-10-01T01:11:11.605Z,1.60
2022-10-01T01:13:51.395Z,1.75
2022-10-01T01:16:48.150Z,2.33
2022-10-01T01:19:30.835Z,1.65
2022-10-01T01:22:04.752Z,1.80
2022-10-01T01:24:58.059Z,1.73
2022-10-01T01:27:46.213Z,1.98
2022-10-01T01:30:18.394Z,1.95
2022-10-01T01:32:54.341Z,1.95
2022-10-01T01:35:42.399Z,1.80
2022-10-01T01:38:21.576Z,1.83
2022-10-01T01:40:56.954Z,1.75
2022-10-01T01:43:36.295Z,1.90
2022-10-01T01:46:09.821Z,1.83
2022-10-01T01:48:43.148Z,1.73
2022-10-01T01:51:22.189Z,1.77
2022-10-01T01:53:52.668Z,2.10
2022-10-01T01:56:22.724Z,2.17
2022-10-01T01:58:53.660Z,2.13
2022-10-01T02:01:42.898Z,2.22
2022-10-01T02:04:19.246Z,2.47
2022-10-01T02:07:07.022Z,2.90
2022-10-01T02:10:05.972Z,3.90
2022-10-01T02:12:42.837Z,3.35
2022-10-01T02:15:21.469Z,4.07
2022-10-01T02:18:17.761Z,5.28
2022-10-01T02:21:13.760Z,6.55
2022-10-01T02:23:59.899Z,8.02
2022-10-01T02:26:33.031Z,10.15
2022-10-01T02:29:09.571Z,10.98
2022-10-01T02:31:40.114Z,12.60
2022-10-01T02:34:12.878Z,14.60
2022-10-01T02:36:44.725Z,14.45
2022-10-01T02:39:21.242Z,13.88
2022-10-01T02:41:53.244Z,13.98
2022-10-01T02:44:31.371Z,15.18
2022-10-01T02:47:08.951Z,14.18
2022-10-01T02:49:42.450Z,14.93
2022-10-01T02:52:30.838Z,14.35
2022-10-01T02:55:08.647Z,12.00
2022-10-01T02:57:39.800Z,14.07
2022-10-01T03:00:15.796Z,13.65
2022-10-01T03:02:45.701Z,13.60
2022-10-01T03:05:16.586Z,12.80
2022-10-01T03:07:47.568Z,11.00
2022-10-01T03:10:17.973Z,12.73
2022-10-01T03:12:48.301Z,13.30
2022-10-01T03:15:20.329Z,12.73
2022-10-01T03:17:54.741Z,12.68
2022-10-01T03:20:25.158Z,11.52
2022-10-01T03:22:54.940Z,12.38
2022-10-01T03:25:24.653Z,11.85
2022-10-01T03:27:55.034Z,12.20
2022-10-01T03:30:25.139Z,12.20
2022-10-01T03:32:54.870Z,11.55
2022-10-01T03:35:26.038Z,13.07
2022-10-01T03:37:56.120Z,11.25
2022-10-01T03:40:26.445Z,12.15
2022-10-01T03:42:56.511Z,12.32
2022-10-01T03:45:26.322Z,13.45
2022-10-01T03:47:56.116Z,12.48
2022-10-01T03:50:25.789Z,13.20
2022-10-01T03:55:26.689Z,11.57
2022-10-01T03:57:56.522Z,12.88
2022-10-01T04:02:56.132Z,11.40
2022-10-01T04:05:27.066Z,13.20
2022-10-01T04:07:57.168Z,13.18
2022-10-01T04:10:27.339Z,13.40
2022-10-01T04:12:57.077Z,12.23
2022-10-01T04:15:26.929Z,10.35
2022-10-01T04:17:56.626Z,10.57
2022-10-01T04:20:26.533Z,11.05
2022-10-01T04:22:56.213Z,12.57
2022-10-01T04:25:25.928Z,12.77
2022-10-01T04:28:04.651Z,12.35
2022-10-01T04:30:43.340Z,12.32
2022-10-01T04:33:18.571Z,12.25
2022-10-01T04:35:48.834Z,11.10
2022-10-01T04:38:19.237Z,10.90
2022-10-01T04:40:49.599Z,11.95
2022-10-01T04:43:19.323Z,12.23
2022-10-01T04:45:49.016Z,12.70
2022-10-01T04:48:19.674Z,11.18
2022-10-01T04:50:49.753Z,13.57
2022-10-01T04:53:19.550Z,13.50
2022-10-01T04:55:49.272Z,12.40
2022-10-01T04:58:19.790Z,11.25
2022-10-01T05:00:51.127Z,12.38
2022-10-01T05:03:21.450Z,12.70
2022-10-01T05:05:51.192Z,12.15
2022-10-01T05:08:20.925Z,10.85
2022-10-01T05:10:50.637Z,11.43
2022-10-01T05:13:20.348Z,11.77
2022-10-01T05:15:53.476Z,13.45
2022-10-01T05:18:23.678Z,11.30
2022-10-01T05:20:53.392Z,12.98
2022-10-01T05:23:23.312Z,12.45
2022-10-01T05:25:53.017Z,12.40
2022-10-01T05:28:22.961Z,12.48
2022-10-01T05:30:52.738Z,13.50
2022-10-01T05:33:22.810Z,13.48
2022-10-01T05:35:53.170Z,13.75
2022-10-01T05:38:22.873Z,11.63
2022-10-01T05:40:52.689Z,13.07
2022-10-01T05:43:22.372Z,12.43
2022-10-01T05:45:52.376Z,12.55
2022-10-01T05:48:22.924Z,12.73
2022-10-01T05:50:53.423Z,11.57
2022-10-01T05:53:24.704Z,10.52
2022-10-01T05:55:54.788Z,10.70
2022-10-01T05:58:24.535Z,9.77
2022-10-01T06:00:56.408Z,10.25
2022-10-01T06:03:29.794Z,10.40
2022-10-01T06:05:59.749Z,9.35
2022-10-01T06:08:29.764Z,10.63
2022-10-01T06:11:03.717Z,9.55
2022-10-01T06:13:34.028Z,10.55
2022-10-01T06:16:03.819Z,10.10
2022-10-01T06:18:33.579Z,10.57
2022-10-01T06:21:03.641Z,10.52
2022-10-01T06:23:33.441Z,9.95
2022-10-01T06:26:06.718Z,9.30
2022-10-01T06:28:36.786Z,10.38
2022-10-01T06:31:06.940Z,10.40
2022-10-01T06:33:37.310Z,10.98
2022-10-01T06:36:07.274Z,10.50
2022-10-01T06:38:37.031Z,9.93
2022-10-01T06:41:06.935Z,10.45
2022-10-01T06:43:36.623Z,11.57
2022-10-01T06:48:37.564Z,9.20
2022-10-01T06:51:07.749Z,11.52
2022-10-01T06:53:37.443Z,11.52
2022-10-01T06:56:09.073Z,11.52
2022-10-01T06:58:39.515Z,11.20
2022-10-01T07:01:09.249Z,11.60
2022-10-01T07:03:39.086Z,11.05
2022-10-01T07:06:10.183Z,10.77
2022-10-01T07:08:40.262Z,10.02
2022-10-01T07:11:10.030Z,11.30
2022-10-01T07:13:39.764Z,10.70
2022-10-01T07:16:09.475Z,11.00
2022-10-01T07:18:39.182Z,11.00
2022-10-01T07:23:38.139Z,10.82
2022-10-01T07:26:10.298Z,10.85
2022-10-01T07:28:40.326Z,11.98
2022-10-01T07:31:12.726Z,11.38
2022-10-01T07:33:43.318Z,11.63
2022-10-01T07:36:14.506Z,11.48
2022-10-01T07:38:46.310Z,11.50
2022-10-01T07:41:18.392Z,10.90
2022-10-01T07:43:48.570Z,11.77
2022-10-01T07:46:18.350Z,12.68
2022-10-01T07:48:50.801Z,12.85
2022-10-01T07:51:20.828Z,12.40
2022-10-01T07:56:20.985Z,12.38
2022-10-01T07:58:51.932Z,11.40
2022-10-01T08:01:22.154Z,12.52
2022-10-01T08:03:53.313Z,12.07
2022-10-01T08:06:25.630Z,12.32
2022-10-01T08:08:56.208Z,11.38
2022-10-01T08:13:57.046Z,11.25
2022-10-01T08:16:30.212Z,11.25
2022-10-01T08:19:00.462Z,11.50
2022-10-01T08:21:30.635Z,12.23
2022-10-01T08:24:00.338Z,11.85
2022-10-01T08:26:30.580Z,11.70
2022-10-01T08:29:00.672Z,12.07
2022-10-01T08:31:33.077Z,11.77
2022-10-01T08:34:03.947Z,11.73
2022-10-01T08:36:36.820Z,11.75
2022-10-01T08:39:06.911Z,11.63
2022-10-01T08:44:29.004Z,11.13
2022-10-01T08:47:09.473Z,10.98
2022-10-01T08:49:49.568Z,10.77
2022-10-01T08:52:27.735Z,10.75
2022-10-01T08:55:13.027Z,11.32
2022-10-01T08:57:51.029Z,9.70
2022-10-01T09:00:21.593Z,9.73
2022-10-01T09:02:54.306Z,10.48
2022-10-01T09:06:05.471Z,10.70
2022-10-01T09:08:53.029Z,10.15
2022-10-01T09:11:26.002Z,10.35
2022-10-01T09:14:10.721Z,10.52
2022-10-01T09:16:55.929Z,9.85
2022-10-01T09:19:55.535Z,10.73
2022-10-01T09:23:07.324Z,10.60
2022-10-01T09:25:40.363Z,11.50
2022-10-01T09:28:36.839Z,11.50
2022-10-01T09:31:29.215Z,11.43
2022-10-01T09:34:15.619Z,11.15
2022-10-01T09:37:11.074Z,10.98
2022-10-01T09:40:07.693Z,11.98
2022-10-01T09:42:37.594Z,11.10
2022-10-01T09:45:08.064Z,11.82
2022-10-01T09:47:37.821Z,10.65
2022-10-01T09:50:09.003Z,11.55
2022-10-01T09:52:42.138Z,11.70
2022-10-01T09:55:26.985Z,11.95
2022-10-01T09:58:22.865Z,12.60
2022-10-01T10:00:54.712Z,12.95
2022-10-01T10:03:32.098Z,12.20
2022-10-01T10:06:02.962Z,12.35
2022-10-01T10:08:35.059Z,13.73
2022-10-01T10:11:10.384Z,12.48
2022-10-01T10:13:52.139Z,13.07
2022-10-01T10:16:28.099Z,12.45
2022-10-01T10:19:03.471Z,13.48
2022-10-01T10:21:36.110Z,13.02
2022-10-01T10:24:08.682Z,11.77
2022-10-01T10:26:41.210Z,11.43
2022-10-01T10:29:29.862Z,11.82
2022-10-01T10:32:01.262Z,11.65
2022-10-01T10:34:41.231Z,11.77
2022-10-01T10:37:18.337Z,11.82
2022-10-01T10:39:52.921Z,10.55
2022-10-01T10:42:27.017Z,10.70
2022-10-01T10:45:03.586Z,11.77
2022-10-01T10:47:35.270Z,11.95
2022-10-01T10:50:08.283Z,10.05
2022-10-01T10:52:42.630Z,10.93
2022-10-01T10:55:26.215Z,10.77
2022-10-01T10:57:57.972Z,12.00
2022-10-01T11:00:30.869Z,11.68
2022-10-01T11:03:05.270Z,11.77
2022-10-01T11:05:43.428Z,11.20
2022-10-01T11:08:24.954Z,11.95
2022-10-01T11:11:07.482Z,11.98
2022-10-01T11:13:43.403Z,11.73
2022-10-01T11:16:30.677Z,11.40
2022-10-01T11:19:12.462Z,11.23
2022-10-01T11:22:06.358Z,11.10
2022-10-01T11:24:54.125Z,10.73
2022-10-01T11:28:01.039Z,10.35
2022-10-01T11:30:58.392Z,10.13
2022-10-01T11:33:54.394Z,10.43
2022-10-01T11:36:29.124Z,9.13
2022-10-01T11:39:06.755Z,10.48
2022-10-01T11:41:48.640Z,10.45
2022-10-01T11:44:56.313Z,11.00
2022-10-01T11:47:38.028Z,10.43
2022-10-01T11:50:20.368Z,10.93
2022-10-01T11:52:59.841Z,11.00
2022-10-01T11:56:30.653Z,10.20
2022-10-01T11:59:09.006Z,10.45
2022-10-01T12:01:42.121Z,9.45
2022-10-01T12:04:23.653Z,15.60
2022-10-01T12:07:22.559Z,10.45
2022-10-01T12:10:23.040Z,10.48
2022-10-01T12:13:17.626Z,9.48
2022-10-01T12:18:45.777Z,10.23
2022-10-01T12:21:30.941Z,10.85
2022-10-01T12:24:06.917Z,10.30
2022-10-01T12:26:48.388Z,9.90
2022-10-01T12:29:46.165Z,10.27
2022-10-01T12:32:25.508Z,9.95
2022-10-01T12:35:22.533Z,9.45
2022-10-01T12:38:15.993Z,8.98
2022-10-01T12:40:49.295Z,9.30
2022-10-01T12:43:40.168Z,11.35
2022-10-01T12:46:37.045Z,10.30
2022-10-01T12:49:28.619Z,9.07
2022-10-01T12:52:34.764Z,9.82
2022-10-01T12:55:22.676Z,8.90
2022-10-01T13:01:08.230Z,8.23
2022-10-01T13:03:41.331Z,8.40
2022-10-01T13:06:23.664Z,8.23
2022-10-01T13:09:04.944Z,7.25
2022-10-01T13:11:46.384Z,8.20
2022-10-01T13:14:19.247Z,8.30
2022-10-01T13:17:11.785Z,7.00
2022-10-01T13:19:52.454Z,7.40
2022-10-01T13:22:39.889Z,6.75
2022-10-01T13:25:47.732Z,7.22
2022-10-01T13:28:38.541Z,7.47
2022-10-01T13:31:17.338Z,6.85
2022-10-01T13:33:58.363Z,7.32
2022-10-01T13:36:36.154Z,7.05
2022-10-01T13:39:06.441Z,7.57
2022-10-01T13:41:37.121Z,7.70
2022-10-01T13:44:10.214Z,6.28
2022-10-01T13:46:55.053Z,8.05
2022-10-01T13:49:32.910Z,6.35
2022-10-01T13:52:04.155Z,6.27
2022-10-01T13:54:47.650Z,5.95
2022-10-01T13:57:32.841Z,7.47
2022-10-01T14:00:17.705Z,6.13
2022-10-01T14:03:24.753Z,6.85
2022-10-01T14:06:06.756Z,4.50
2022-10-01T14:08:47.681Z,5.25
2022-10-01T14:11:46.977Z,5.50
2022-10-01T14:14:55.436Z,4.97
2022-10-01T14:17:31.512Z,4.25
2022-10-01T14:20:02.505Z,5.45
2022-10-01T14:23:07.086Z,6.18
2022-10-01T14:25:53.891Z,5.68
2022-10-01T14:28:35.284Z,5.15
2022-10-01T14:31:38.960Z,4.97
2022-10-01T14:34:39.553Z,6.15
2022-10-01T14:37:16.990Z,5.45
2022-10-01T14:39:47.834Z,4.38
2022-10-01T14:42:19.818Z,5.53
2022-10-01T14:44:49.773Z,4.72
2022-10-01T14:47:29.017Z,4.72
2022-10-01T14:50:09.645Z,5.30
2022-10-01T14:52:45.030Z,4.72
2022-10-01T14:55:17.521Z,5.20
2022-10-01T14:57:54.320Z,3.20
2022-10-01T15:00:33.749Z,3.90
2022-10-01T15:03:13.732Z,3.78
2022-10-01T15:05:45.092Z,4.00
2022-10-01T15:08:25.102Z,3.40
2022-10-01T15:11:08.548Z,6.43
2022-10-01T15:13:42.189Z,3.65
2022-10-01T15:16:21.928Z,5.13
2022-10-01T15:19:08.464Z,3.88
2022-10-01T15:22:03.554Z,3.78
2022-10-01T15:24:50.158Z,3.53
2022-10-01T15:27:22.888Z,3.50
2022-10-01T15:29:56.456Z,9.02
2022-10-01T15:32:29.115Z,3.70
2022-10-01T15:35:02.371Z,3.33
2022-10-01T15:37:36.783Z,3.58
2022-10-01T15:40:11.252Z,4.05
2022-10-01T15:42:41.692Z,4.05
2022-10-01T15:45:11.930Z,4.90
2022-10-01T15:47:52.791Z,4.93
2022-10-01T15:50:28.151Z,4.47
2022-10-01T15:53:29.867Z,3.97
2022-10-01T15:56:01.940Z,3.90
2022-10-01T15:58:36.790Z,3.33
2022-10-01T16:01:22.173Z,3.45
2022-10-01T16:04:08.007Z,3.40
2022-10-01T16:06:39.932Z,2.90
2022-10-01T16:09:22.842Z,2.63
2022-10-01T16:11:58.008Z,2.50
2022-10-01T16:15:06.492Z,3.03
2022-10-01T16:17:45.093Z,3.20
2022-10-01T16:20:18.958Z,3.70
2022-10-01T16:22:49.269Z,2.55
2022-10-01T16:25:25.096Z,3.08
2022-10-01T16:28:07.230Z,2.55
2022-10-01T16:30:37.395Z,2.33
2022-10-01T16:33:07.230Z,2.40
2022-10-01T16:35:38.968Z,2.58
2022-10-01T16:38:10.263Z,2.22
2022-10-01T16:40:43.380Z,2.17
2022-10-01T16:43:26.874Z,1.90
2022-10-01T16:45:58.822Z,1.70
2022-10-01T16:48:29.367Z,2.08
2022-10-01T16:51:00.415Z,1.80
2022-10-01T16:53:30.727Z,1.83
2022-10-01T16:56:00.398Z,1.63
2022-10-01T16:58:30.430Z,1.58
2022-10-01T17:01:00.228Z,1.63
2022-10-01T17:03:30.001Z,1.33
2022-10-01T17:05:59.994Z,1.30
2022-10-01T17:08:30.819Z,1.40
2022-10-01T17:11:04.205Z,1.40
2022-10-01T17:13:35.182Z,1.38
2022-10-01T17:16:06.952Z,1.50
2022-10-01T17:18:37.231Z,1.20
2022-10-01T17:21:07.164Z,1.10
2022-10-01T17:23:37.852Z,1.10
2022-10-01T17:26:08.827Z,1.30
2022-10-01T17:28:38.599Z,1.10
2022-10-01T17:31:10.637Z,1.00
2022-10-01T17:33:44.043Z,1.00
2022-10-01T17:36:15.058Z,1.02
2022-10-01T17:38:46.824Z,0.90
2022-10-01T17:41:17.063Z,1.20
2022-10-01T17:43:46.749Z,1.42
2022-10-01T17:46:16.732Z,1.35
2022-10-01T17:48:49.444Z,1.20
2022-10-01T17:51:19.958Z,1.77
2022-10-01T17:53:50.087Z,2.13
2022-10-01T17:56:20.820Z,2.70
2022-10-01T17:58:50.606Z,2.40
2022-10-01T18:01:23.099Z,2.88
2022-10-01T18:03:57.462Z,3.28
2022-10-01T18:06:27.857Z,2.70
2022-10-01T18:08:57.903Z,2.83
2022-10-01T18:11:29.628Z,2.85
2022-10-01T18:14:00.316Z,2.15
2022-10-01T18:16:30.758Z,2.40
2022-10-01T18:21:55.322Z,1.90
2022-10-01T18:24:25.974Z,1.70
2022-10-01T18:26:56.052Z,1.70
2022-10-01T18:29:29.856Z,1.30
2022-10-01T18:32:22.098Z,1.25
2022-10-01T18:35:00.187Z,1.20
2022-10-01T18:37:53.643Z,1.33
2022-10-01T18:40:42.181Z,1.42
2022-10-01T18:43:24.846Z,1.33
2022-10-01T18:46:25.912Z,1.55
2022-10-01T18:48:59.896Z,1.50
2022-10-01T18:51:59.983Z,1.58
2022-10-01T18:54:59.091Z,1.20
2022-10-01T19:00:25.566Z,1.20
2022-10-01T19:03:28.664Z,1.23
2022-10-01T19:06:09.621Z,1.33
2022-10-01T19:08:43.330Z,1.10
2022-10-01T19:11:25.132Z,1.50
2022-10-01T19:16:55.966Z,1.23
2022-10-01T19:19:36.343Z,0.90
2022-10-01T19:22:21.189Z,1.15
2022-10-01T19:24:59.200Z,0.95
2022-10-01T19:27:52.816Z,1.10
2022-10-01T19:30:23.121Z,0.70
2022-10-01T19:36:04.600Z,0.75
2022-10-01T19:38:43.462Z,0.98
2022-10-01T19:41:27.033Z,0.80
2022-10-01T19:44:04.568Z,0.73
2022-10-01T19:46:37.194Z,0.75
2022-10-01T19:51:50.603Z,0.73
2022-10-01T19:54:26.241Z,0.50
2022-10-01T19:57:02.939Z,0.85
2022-10-01T19:59:36.437Z,0.85
2022-10-01T20:02:17.693Z,0.82
2022-10-01T20:05:02.475Z,1.00
2022-10-01T20:07:50.061Z,0.82
2022-10-01T20:10:31.908Z,0.75
2022-10-01T20:13:14.004Z,0.80
2022-10-01T20:15:56.416Z,0.95
2022-10-01T20:18:48.217Z,0.95
2022-10-01T20:21:41.992Z,0.73
2022-10-01T20:24:18.166Z,0.95
2022-10-01T20:27:01.755Z,0.73
2022-10-01T20:29:52.296Z,0.90
2022-10-01T20:32:38.152Z,0.63
2022-10-01T20:35:29.292Z,0.90
2022-10-01T20:38:03.120Z,0.80
2022-10-01T20:40:37.373Z,1.08
2022-10-01T20:43:18.523Z,0.80
2022-10-01T20:45:52.586Z,0.88
2022-10-01T20:48:29.109Z,0.80
2022-10-01T20:51:11.016Z,0.80
2022-10-01T20:53:53.053Z,0.90
2022-10-01T20:56:38.080Z,0.80
2022-10-01T20:59:22.489Z,0.70
2022-10-01T21:02:25.188Z,0.95
2022-10-01T21:05:23.756Z,0.82
2022-10-01T21:07:59.168Z,0.80
2022-10-01T21:10:43.616Z,0.57
2022-10-01T21:13:38.176Z,0.52
2022-10-01T21:16:38.525Z,0.50
2022-10-01T21:19:28.907Z,0.47
2022-10-01T21:22:34.789Z,0.50
2022-10-01T21:25:11.835Z,1.00
2022-10-01T21:28:34.083Z,0.73
2022-10-01T21:31:22.360Z,0.68
2022-10-01T21:34:00.681Z,0.80
2022-10-01T21:36:57.500Z,0.70
2022-10-01T21:39:35.065Z,0.80
2022-10-01T21:42:28.329Z,0.60
2022-10-01T21:45:16.616Z,0.63
2022-10-01T21:48:04.640Z,0.52
2022-10-01T21:50:52.090Z,0.65
2022-10-01T21:53:48.869Z,0.80
2022-10-01T21:56:36.992Z,0.70
2022-10-01T21:59:19.133Z,0.70
2022-10-01T22:02:20.508Z,0.80
2022-10-01T22:05:03.632Z,0.80
2022-10-01T22:07:39.341Z,0.93
2022-10-01T22:10:18.878Z,0.60
2022-10-01T22:12:53.041Z,0.82
2022-10-01T22:15:45.571Z,0.77
2022-10-01T22:18:41.611Z,0.50
2022-10-01T22:21:16.081Z,0.73
2022-10-01T22:24:00.614Z,0.60
2022-10-01T22:26:34.211Z,0.75
2022-10-01T22:29:08.734Z,0.50
2022-10-01T22:31:40.461Z,0.68
2022-10-01T22:34:24.201Z,0.60
2022-10-01T22:37:07.744Z,0.55
2022-10-01T22:39:54.780Z,0.60
2022-10-01T22:42:37.335Z,1.00
2022-10-01T22:45:18.680Z,1.13
2022-10-01T22:48:15.184Z,0.93
2022-10-01T22:51:07.856Z,1.27
2022-10-01T22:54:19.564Z,1.10
2022-10-01T22:57:22.235Z,0.70
2022-10-01T23:00:11.025Z,0.70
2022-10-01T23:02:44.936Z,0.60
2022-10-01T23:05:48.457Z,0.73
2022-10-01T23:08:29.892Z,0.60
2022-10-01T23:11:35.154Z,0.63
2022-10-01T23:14:20.909Z,0.43
2022-10-01T23:17:03.954Z,0.80
2022-10-01T23:20:01.824Z,0.60
2022-10-01T23:22:49.436Z,0.63
2022-10-01T23:25:42.829Z,0.70
2022-10-01T23:28:33.434Z,0.60
2022-10-01T23:31:03.225Z,0.55
2022-10-01T23:36:43.955Z,0.52
2022-10-01T23:39:28.107Z,0.45
2022-10-01T23:42:09.386Z,0.80
2022-10-01T23:44:48.993Z,0.90
2022-10-01T23:47:35.668Z,0.82
2022-10-01T23:50:09.706Z,1.23
2022-10-01T23:52:46.697Z,0.95
2022-10-01T23:55:39.038Z,0.63
2022-10-01T23:58:12.670Z,0.60
